Time;durP1;ratioP1;P1;durP2;ratioP2;P2;SDS_P1;SDS_P2;PMS_P1;PMS_P2;Temp;Humidity;BMP_temperature;BMP_pressure;BME280_temperature;BME280_humidity;BME280_pressure;Samples;Min_cycle;Max_cycle;Signal;HPM_P1;HPM_P2
2021/12/16 00:09:18;;;;;;;22.33;16.30;;;;;;;-0.18;70.98;95826.34;5054418;28;20231;-64
2021/12/16 00:35:57;;;;;;;19.93;15.50;;;;;;;-0.41;71.17;95824.75;5121000;28;20226;-65
2021/12/16 00:38:23;;;;;;;18.93;13.97;;;;;;;-0.33;71.11;95837.34;5123125;28;20279;-65
2021/12/16 00:40:48;;;;;;;19.03;14.67;;;;;;;-0.34;70.81;95826.16;5125429;28;20227;-62
2021/12/16 00:43:26;;;;;;;17.87;14.00;;;;;;;-0.36;70.91;95843.47;5126081;28;20219;-64
2021/12/16 00:54:11;;;;;;;19.80;13.87;;;;;;;-0.43;71.00;95843.78;5121917;28;20238;-63
2021/12/16 00:56:53;;;;;;;19.73;15.33;;;;;;;-0.42;71.41;95843.75;5123828;27;20202;-66
2021/12/16 00:59:21;;;;;;;19.70;14.10;;;;;;;-0.45;71.39;95826.63;5125290;28;20222;-67
2021/12/16 01:01:56;;;;;;;20.33;13.20;;;;;;;-0.40;71.04;95817.81;5125618;28;20227;-62
2021/12/16 01:46:26;;;;;;;16.33;11.73;;;;;;;-0.40;70.64;95798.00;5051287;28;20628;-63
2021/12/16 01:51:33;;;;;;;18.33;13.40;;;;;;;-0.41;71.27;95798.91;5118942;28;20291;-63
2021/12/16 01:56:48;;;;;;;18.13;13.07;;;;;;;-0.40;71.24;95791.97;5124543;28;20270;-65
2021/12/16 01:59:19;;;;;;;16.73;13.23;;;;;;;-0.27;70.91;95793.13;5124481;28;20253;-64
2021/12/16 02:01:46;;;;;;;18.67;13.83;;;;;;;-0.30;71.08;95790.69;5122718;28;20215;-64
2021/12/16 02:04:26;;;;;;;18.70;13.27;;;;;;;-0.32;70.65;95795.06;5121753;28;20227;-62
2021/12/16 02:09:29;;;;;;;15.43;12.30;;;;;;;-0.26;70.59;95794.81;5124879;28;20211;-62
2021/12/16 02:12:04;;;;;;;16.90;12.73;;;;;;;-0.29;70.55;95798.38;5122048;28;20267;-62
2021/12/16 02:33:22;;;;;;;15.83;12.00;;;;;;;-0.04;70.50;95792.13;5119164;27;20222;-65
2021/12/16 02:36:01;;;;;;;16.30;12.80;;;;;;;-0.02;69.96;95801.50;5119837;28;20219;-66
2021/12/16 02:38:30;;;;;;;18.20;12.60;;;;;;;0.05;70.11;95801.19;5120326;28;20286;-63
2021/12/16 02:40:56;;;;;;;14.57;11.93;;;;;;;0.05;70.07;95798.63;5118384;28;20347;-64
2021/12/16 02:48:40;;;;;;;17.30;12.70;;;;;;;0.00;70.40;95788.50;5121909;28;20268;-62
2021/12/16 02:51:16;;;;;;;16.27;12.07;;;;;;;0.06;69.88;95792.56;5120274;28;20325;-63
2021/12/16 02:53:47;;;;;;;17.70;12.80;;;;;;;-0.01;70.34;95785.06;5119015;28;20217;-64
2021/12/16 02:56:14;;;;;;;16.00;12.23;;;;;;;0.09;70.48;95797.59;5121843;28;20270;-63
2021/12/16 02:58:45;;;;;;;16.90;12.73;;;;;;;0.04;70.21;95791.78;5121761;28;20218;-63
2021/12/16 03:01:24;;;;;;;16.63;12.67;;;;;;;0.07;70.32;95783.88;5119881;28;20228;-67
2021/12/16 03:03:49;;;;;;;15.30;12.10;;;;;;;0.17;69.87;95795.50;5122182;28;20239;-63
2021/12/16 03:06:15;;;;;;;16.67;12.40;;;;;;;0.19;69.97;95791.09;5120752;28;20226;-63
2021/12/16 03:08:41;;;;;;;15.07;12.43;;;;;;;0.19;70.13;95799.69;5122009;28;20203;-66
2021/12/16 03:16:48;;;;;;;15.53;11.37;;;;;;;0.20;70.04;95792.75;5038226;28;20233;-64
2021/12/16 03:22:19;;;;;;;18.60;13.37;;;;;;;0.21;70.04;95787.53;4949908;29;20240;-65
2021/12/16 03:27:42;;;;;;;16.50;12.03;;;;;;;0.27;70.08;95791.59;4950545;29;20229;-63
2021/12/16 03:36:03;;;;;;;16.93;12.77;;;;;;;0.33;69.53;95804.22;4928681;29;20269;-63
2021/12/16 03:38:31;;;;;;;16.60;12.30;;;;;;;0.35;69.80;95794.66;4930507;29;20221;-66
2021/12/16 03:40:57;;;;;;;17.53;12.47;;;;;;;0.36;70.03;95801.50;4931676;29;20229;-66
2021/12/16 03:43:23;;;;;;;17.07;12.83;;;;;;;0.41;69.65;95802.13;4915972;29;20217;-63
2021/12/16 03:48:56;;;;;;;17.00;12.73;;;;;;;0.37;69.81;95808.34;4927736;29;20237;-65
2021/12/16 03:51:27;;;;;;;15.97;12.10;;;;;;;0.47;69.69;95800.16;4975729;28;20233;-63
2021/12/16 03:53:58;;;;;;;16.10;12.30;;;;;;;0.47;69.70;95806.16;4999803;28;20251;-67
2021/12/16 03:56:24;;;;;;;14.83;11.17;;;;;;;0.47;69.55;95807.94;5001283;28;20222;-68
2021/12/16 03:58:51;;;;;;;15.37;11.70;;;;;;;0.60;68.92;95799.50;5042288;28;20208;-66
2021/12/16 04:01:21;;;;;;;15.80;11.53;;;;;;;0.52;69.53;95798.19;5063615;28;20259;-62
2021/12/16 04:03:49;;;;;;;13.80;11.47;;;;;;;0.41;69.70;95803.88;5062604;28;20232;-64
2021/12/16 04:06:17;;;;;;;18.07;12.00;;;;;;;0.42;70.08;95800.38;5061966;28;20271;-66
2021/12/16 04:08:43;;;;;;;14.47;12.10;;;;;;;0.41;70.06;95803.88;5091502;28;20256;-63
2021/12/16 04:11:24;;;;;;;14.93;11.13;;;;;;;0.43;70.04;95796.88;5121292;28;20195;-65
2021/12/16 04:16:33;;;;;;;13.17;11.43;;;;;;;0.53;69.47;95799.88;5122498;28;20218;-63
2021/12/16 04:19:01;;;;;;;14.37;11.93;;;;;;;0.56;69.54;95802.31;5118334;27;20210;-66
2021/12/16 04:21:28;;;;;;;15.40;11.47;;;;;;;0.52;69.45;95801.63;5122016;28;20219;-64
2021/12/16 04:23:58;;;;;;;15.77;11.33;;;;;;;0.60;69.54;95803.84;5117328;28;20229;-63
2021/12/16 04:26:27;;;;;;;15.23;11.87;;;;;;;0.57;69.50;95793.66;5120921;28;20231;-64
2021/12/16 04:28:54;;;;;;;15.03;12.40;;;;;;;0.59;69.71;95794.44;5121332;28;20215;-63
2021/12/16 04:31:20;;;;;;;14.50;10.77;;;;;;;0.53;69.55;95786.94;5121095;28;20249;-63
2021/12/16 04:33:46;;;;;;;12.60;10.17;;;;;;;0.63;69.34;95790.75;5121024;28;20229;-63
2021/12/16 04:36:13;;;;;;;15.40;12.10;;;;;;;0.59;69.34;95782.31;5118375;28;20215;-62
2021/12/16 04:38:41;;;;;;;12.80;10.70;;;;;;;0.58;69.62;95780.63;5119864;28;20212;-62
2021/12/16 04:41:11;;;;;;;14.67;11.40;;;;;;;0.61;69.44;95784.81;5121418;28;20274;-64
2021/12/16 04:43:41;;;;;;;14.73;11.27;;;;;;;0.61;69.76;95785.66;5119681;28;20219;-65
2021/12/16 04:46:12;;;;;;;14.87;10.97;;;;;;;0.64;69.58;95782.94;5118933;28;20238;-65
2021/12/16 04:48:39;;;;;;;12.93;11.23;;;;;;;0.70;69.55;95794.75;5120155;28;20211;-67
2021/12/16 04:51:06;;;;;;;14.03;11.07;;;;;;;0.74;69.29;95785.06;5120398;28;20227;-64
2021/12/16 04:53:32;;;;;;;13.80;11.13;;;;;;;0.66;69.59;95785.44;5117778;28;20196;-63
2021/12/16 04:55:58;;;;;;;15.83;11.60;;;;;;;0.65;69.56;95779.44;5118785;28;20248;-64
2021/12/16 04:58:24;;;;;;;14.50;10.77;;;;;;;0.70;69.73;95788.75;5120511;28;20291;-63
2021/12/16 05:00:50;;;;;;;13.57;11.27;;;;;;;0.71;69.61;95782.63;5118934;28;20261;-62
2021/12/16 05:03:16;;;;;;;14.37;11.23;;;;;;;0.63;70.22;95775.22;5120166;28;20214;-63
2021/12/16 05:05:41;;;;;;;13.80;11.33;;;;;;;0.67;70.23;95774.19;5121988;28;20207;-64
2021/12/16 05:08:07;;;;;;;13.73;11.23;;;;;;;0.64;70.45;95785.53;5119300;28;20208;-63
2021/12/16 05:10:33;;;;;;;14.87;11.27;;;;;;;0.63;70.69;95773.47;5120428;28;20275;-62
2021/12/16 05:13:00;;;;;;;14.43;11.17;;;;;;;0.63;71.13;95783.00;5117613;28;20259;-62
2021/12/16 05:15:32;;;;;;;15.43;11.07;;;;;;;0.60;71.57;95772.78;5115634;28;20227;-62
2021/12/16 05:18:01;;;;;;;14.63;11.37;;;;;;;0.64;71.30;95779.50;5118682;27;20208;-64
2021/12/16 05:20:31;;;;;;;15.70;11.17;;;;;;;0.59;71.67;95782.31;5120531;28;20324;-62
2021/12/16 05:28:13;;;;;;;12.23;10.23;;;;;;;0.57;71.39;95778.13;5122697;28;20223;-61
2021/12/16 05:30:39;;;;;;;13.30;10.57;;;;;;;0.57;71.88;95771.19;5123003;28;20239;-63
2021/12/16 05:33:05;;;;;;;14.50;11.37;;;;;;;0.64;71.74;95784.66;5120021;28;20248;-61
2021/12/16 05:35:31;;;;;;;14.13;10.97;;;;;;;0.63;71.64;95772.66;5120513;28;20248;-64
2021/12/16 05:37:56;;;;;;;14.50;10.40;;;;;;;0.54;71.83;95780.84;5120679;28;20203;-63
2021/12/16 05:40:27;;;;;;;14.30;11.23;;;;;;;0.56;72.31;95779.00;5122597;28;20215;-65
2021/12/16 05:42:58;;;;;;;15.00;10.03;;;;;;;0.55;72.00;95779.94;5122918;28;20223;-62
2021/12/16 05:45:25;;;;;;;12.13;10.10;;;;;;;0.60;71.66;95781.41;5121007;28;20551;-62
2021/12/16 05:47:53;;;;;;;12.20;10.30;;;;;;;0.61;71.52;95780.47;5117820;28;20223;-61
2021/12/16 05:50:20;;;;;;;13.00;9.67;;;;;;;0.57;71.45;95778.97;5118477;28;20207;-61
2021/12/16 05:52:45;;;;;;;13.83;10.67;;;;;;;0.66;71.40;95786.28;5121552;28;20230;-62
2021/12/16 05:55:14;;;;;;;11.77;10.23;;;;;;;0.62;71.15;95781.34;5119766;28;20223;-62
2021/12/16 05:57:41;;;;;;;11.77;9.87;;;;;;;0.58;71.13;95772.03;5118570;28;20312;-62
2021/12/16 06:00:14;;;;;;;12.60;10.00;;;;;;;0.60;71.54;95780.56;5121311;28;20234;-63
2021/12/16 06:02:40;;;;;;;12.97;10.07;;;;;;;0.68;71.14;95785.38;5119517;28;20235;-62
2021/12/16 06:05:06;;;;;;;12.03;10.53;;;;;;;0.68;71.12;95786.22;5122691;28;20211;-62
2021/12/16 06:07:32;;;;;;;14.40;10.70;;;;;;;0.68;71.07;95788.81;5118669;28;20262;-63
2021/12/16 06:09:57;;;;;;;13.93;10.37;;;;;;;0.72;70.93;95785.13;5117929;28;20265;-64
2021/12/16 06:12:24;;;;;;;12.70;10.37;;;;;;;0.76;70.64;95788.44;5120406;28;20234;-63
2021/12/16 06:28:12;;;;;;;10.40;8.23;;;;;;;0.60;70.70;95777.97;5121121;27;20226;-62
2021/12/16 06:30:42;;;;;;;10.63;8.73;;;;;;;0.60;70.73;95777.97;5123705;27;20235;-64
2021/12/16 06:33:11;;;;;;;10.07;7.63;;;;;;;0.55;70.48;95772.19;5121916;27;20231;-62
2021/12/16 06:35:37;;;;;;;9.97;8.93;;;;;;;0.66;70.51;95773.31;5123229;27;20206;-65
2021/12/16 06:38:04;;;;;;;10.23;8.53;;;;;;;0.62;70.42;95768.41;5122857;28;20207;-66
2021/12/16 06:40:29;;;;;;;10.50;9.07;;;;;;;0.64;70.01;95769.13;5117668;28;20219;-61
2021/12/16 06:42:57;;;;;;;9.30;7.60;;;;;;;0.69;70.29;95771.50;5122107;28;20230;-65
2021/12/16 06:45:28;;;;;;;8.40;7.30;;;;;;;0.73;70.08;95776.47;5120188;28;20230;-63
2021/12/16 06:48:30;;;;;;;9.60;8.50;;;;;;;0.80;70.04;95777.88;5121006;28;20235;-65
2021/12/16 06:53:35;;;;;;;10.23;8.60;;;;;;;0.75;69.61;95773.81;5123217;28;20221;-64
2021/12/16 06:56:13;;;;;;;8.37;7.40;;;;;;;0.73;69.92;95784.25;5122194;28;20246;-64
2021/12/16 07:01:17;;;;;;;8.60;7.40;;;;;;;0.87;68.93;95784.41;5120550;28;20230;-64
2021/12/16 07:03:48;;;;;;;9.47;8.07;;;;;;;0.89;68.93;95781.75;5135856;27;20230;-66
2021/12/16 07:06:27;;;;;;;10.23;7.77;;;;;;;0.95;68.61;95784.03;5119673;28;20233;-64
2021/12/16 07:08:56;;;;;;;9.37;7.80;;;;;;;0.91;68.43;95781.66;5103505;28;20573;-64
2021/12/16 07:11:23;;;;;;;9.47;7.97;;;;;;;1.04;68.10;95780.16;5120051;28;20263;-63
2021/12/16 07:14:00;;;;;;;9.23;8.33;;;;;;;1.05;67.73;95789.63;5119277;28;20230;-62
2021/12/16 07:16:28;;;;;;;9.30;8.23;;;;;;;1.13;67.29;95787.50;5119208;28;20274;-63
2021/12/16 07:18:56;;;;;;;8.57;7.53;;;;;;;1.20;66.78;95783.66;5117872;28;20211;-67
2021/12/16 07:21:23;;;;;;;8.97;7.13;;;;;;;1.08;66.76;95779.94;5121252;28;20210;-63
2021/12/16 07:23:49;;;;;;;7.93;6.83;;;;;;;1.18;66.86;95779.50;5119527;28;20267;-63
2021/12/16 07:26:15;;;;;;;7.93;6.53;;;;;;;1.17;66.93;95781.22;5122535;28;20211;-63
2021/12/16 07:28:40;;;;;;;8.37;7.47;;;;;;;1.26;66.44;95793.75;5122290;28;20226;-63
2021/12/16 07:31:06;;;;;;;7.30;6.60;;;;;;;1.31;65.93;95791.75;5118021;28;20231;-63
2021/12/16 07:33:31;;;;;;;8.47;7.03;;;;;;;1.27;66.05;95790.22;5119011;28;20220;-63
2021/12/16 07:36:00;;;;;;;10.50;6.87;;;;;;;1.35;65.92;95799.38;5119256;28;20235;-64
2021/12/16 07:38:26;;;;;;;7.33;6.43;;;;;;;1.33;65.76;95795.09;5119559;28;20199;-64
2021/12/16 07:40:53;;;;;;;8.00;6.10;;;;;;;1.44;65.31;95793.72;5118471;28;20203;-63
2021/12/16 07:46:03;;;;;;;6.50;5.40;;;;;;;1.38;64.88;95792.28;5118862;27;20272;-64
2021/12/16 07:48:28;;;;;;;6.07;5.47;;;;;;;1.39;65.00;95787.94;5119541;28;20252;-62
2021/12/16 07:50:57;;;;;;;7.20;6.13;;;;;;;1.40;64.91;95777.50;5114159;28;20219;-63
2021/12/16 07:53:23;;;;;;;8.40;6.40;;;;;;;1.50;64.88;95785.66;5120224;28;20199;-63
2021/12/16 07:55:49;;;;;;;6.77;6.03;;;;;;;1.51;64.89;95798.53;5115400;28;20261;-63
2021/12/16 07:58:15;;;;;;;7.53;5.67;;;;;;;1.48;64.77;95800.44;5120674;28;20286;-63
2021/12/16 08:00:41;;;;;;;8.17;5.83;;;;;;;1.52;64.47;95796.75;5117085;28;20279;-63
2021/12/16 08:03:11;;;;;;;6.70;5.77;;;;;;;1.52;64.83;95788.97;5119001;28;20234;-64
2021/12/16 08:05:43;;;;;;;6.67;5.57;;;;;;;1.69;63.95;95795.91;5119719;28;20270;-65
2021/12/16 08:08:08;;;;;;;6.27;5.23;;;;;;;1.68;64.17;95800.25;5118066;28;20226;-63
2021/12/16 08:10:36;;;;;;;7.80;5.50;;;;;;;1.69;63.74;95785.56;5118964;28;20219;-64
2021/12/16 08:13:01;;;;;;;6.87;6.00;;;;;;;1.67;63.81;95793.41;5117417;28;20235;-63
2021/12/16 08:15:27;;;;;;;7.07;6.37;;;;;;;1.64;64.42;95784.94;5119202;28;20230;-65
2021/12/16 08:17:54;;;;;;;7.10;6.23;;;;;;;1.66;64.69;95785.72;5118026;28;20223;-63
2021/12/16 08:20:21;;;;;;;6.70;5.43;;;;;;;1.76;64.34;95794.66;5123382;28;20319;-65
2021/12/16 08:22:48;;;;;;;7.10;6.17;;;;;;;1.91;64.26;95788.69;5119237;28;20291;-64
2021/12/16 08:25:17;;;;;;;8.03;6.97;;;;;;;1.99;64.04;95783.09;5116566;28;20223;-66
2021/12/16 08:27:43;;;;;;;7.13;6.43;;;;;;;2.03;63.84;95776.81;5116142;28;20234;-65
2021/12/16 08:30:16;;;;;;;8.53;6.40;;;;;;;2.03;63.99;95787.19;5117787;28;20231;-66
2021/12/16 08:32:43;;;;;;;9.53;7.10;;;;;;;2.18;63.81;95788.16;5116791;28;20203;-63
2021/12/16 08:35:10;;;;;;;9.17;7.57;;;;;;;2.19;63.50;95780.31;5119469;28;20212;-64
2021/12/16 08:37:37;;;;;;;9.57;7.53;;;;;;;2.16;64.46;95784.81;5122756;28;20286;-65
2021/12/16 08:40:05;;;;;;;9.00;7.47;;;;;;;2.18;64.60;95789.00;5120985;28;20242;-64
2021/12/16 08:42:31;;;;;;;8.50;7.13;;;;;;;2.05;64.19;95797.50;5119541;28;20233;-64
2021/12/16 08:44:57;;;;;;;9.43;6.43;;;;;;;2.04;64.35;95788.91;5120119;28;20211;-64
2021/12/16 08:47:23;;;;;;;8.17;7.13;;;;;;;2.06;64.51;95789.66;5117995;28;20262;-63
2021/12/16 08:49:49;;;;;;;9.60;7.20;;;;;;;2.18;64.16;95775.19;5117329;28;20223;-62
2021/12/16 08:52:19;;;;;;;10.03;8.23;;;;;;;2.21;64.12;95778.44;5116509;28;20219;-63
2021/12/16 08:54:46;;;;;;;7.87;7.07;;;;;;;2.29;63.79;95782.38;5119660;28;20299;-65
2021/12/16 08:57:12;;;;;;;8.53;6.63;;;;;;;2.29;62.81;95770.25;5123142;28;20222;-63
2021/12/16 08:59:38;;;;;;;6.80;6.00;;;;;;;2.22;63.36;95774.13;5121157;28;20203;-63
2021/12/16 09:02:07;;;;;;;8.63;6.67;;;;;;;2.18;64.05;95763.03;5122692;28;20228;-62
2021/12/16 09:04:34;;;;;;;12.90;7.77;;;;;;;2.37;63.52;95764.66;5121699;28;20219;-62
2021/12/16 09:07:03;;;;;;;9.83;7.60;;;;;;;2.45;63.48;95770.25;5123507;28;20226;-61
2021/12/16 09:09:33;;;;;;;11.07;7.50;;;;;;;2.54;62.86;95759.38;5122874;28;20222;-62
2021/12/16 09:12:25;;;;;;;9.33;7.93;;;;;;;2.51;62.80;95769.06;5120710;28;20234;-62
2021/12/16 09:14:50;;;;;;;9.73;6.93;;;;;;;2.55;62.76;95765.41;5124429;28;20211;-63
2021/12/16 09:17:16;;;;;;;8.57;7.07;;;;;;;2.59;62.39;95757.38;5121515;28;20210;-63
2021/12/16 09:19:47;;;;;;;10.70;8.33;;;;;;;2.55;62.21;95750.66;5122555;28;20278;-63
2021/12/16 09:22:15;;;;;;;8.10;6.97;;;;;;;2.63;62.13;95755.44;5121493;28;20250;-63
2021/12/16 09:24:42;;;;;;;9.43;7.70;;;;;;;2.67;62.08;95751.72;5121237;28;20335;-63
2021/12/16 09:27:08;;;;;;;8.50;7.40;;;;;;;2.66;61.75;95747.47;5122616;28;20229;-65
2021/12/16 09:29:33;;;;;;;9.20;7.10;;;;;;;2.71;62.01;95745.44;5124267;28;20242;-62
2021/12/16 09:32:02;;;;;;;8.27;6.77;;;;;;;2.71;61.98;95742.84;5122413;28;20206;-62
2021/12/16 09:34:27;;;;;;;6.83;6.10;;;;;;;2.70;62.02;95742.91;5123379;28;20341;-63
2021/12/16 09:36:53;;;;;;;8.50;5.70;;;;;;;2.47;62.31;95746.81;5123182;28;20219;-66
2021/12/16 09:39:21;;;;;;;5.23;4.73;;;;;;;2.33;61.86;95739.78;5122770;28;20264;-66
2021/12/16 09:41:49;;;;;;;5.20;4.70;;;;;;;2.45;62.11;95741.69;5122163;28;20219;-63
2021/12/16 09:44:16;;;;;;;7.17;5.80;;;;;;;2.53;62.62;95741.28;5119893;28;20192;-63
2021/12/16 09:46:48;;;;;;;7.67;6.50;;;;;;;2.56;62.89;95746.28;5124530;28;20226;-64
2021/12/16 09:49:16;;;;;;;6.80;5.63;;;;;;;2.46;63.22;95743.38;5122443;28;20222;-64
2021/12/16 09:51:43;;;;;;;6.20;5.33;;;;;;;2.46;63.35;95730.41;5120768;28;20235;-64
2021/12/16 09:54:23;;;;;;;7.57;6.07;;;;;;;2.40;63.88;95738.50;5122254;28;20223;-64
2021/12/16 09:56:50;;;;;;;7.23;6.40;;;;;;;2.46;63.87;95733.00;5119836;28;20230;-64
2021/12/16 09:59:17;;;;;;;7.37;6.63;;;;;;;2.55;63.85;95734.25;5117959;28;20222;-64
2021/12/16 10:01:47;;;;;;;8.93;6.73;;;;;;;2.58;63.99;95729.72;5120120;28;20235;-64
2021/12/16 10:04:19;;;;;;;8.37;6.30;;;;;;;2.58;63.59;95732.31;5120982;28;20318;-66
2021/12/16 10:06:47;;;;;;;11.73;6.47;;;;;;;2.60;63.60;95735.66;5121378;28;20215;-66
2021/12/16 10:09:13;;;;;;;9.10;6.20;;;;;;;2.64;63.78;95723.34;5119439;28;20248;-62
2021/12/16 10:11:43;;;;;;;6.97;5.47;;;;;;;2.57;64.49;95715.06;5120025;28;20227;-64
2021/12/16 10:19:26;;;;;;;6.17;5.33;;;;;;;2.78;64.04;95710.44;5119330;28;20234;-63
2021/12/16 10:21:53;;;;;;;7.00;5.57;;;;;;;2.84;63.36;95698.84;5118883;28;20229;-63
2021/12/16 10:24:28;;;;;;;8.13;5.60;;;;;;;3.02;63.17;95696.94;5122375;28;20227;-63
2021/12/16 10:27:13;;;;;;;6.23;5.43;;;;;;;3.18;63.07;95689.06;5119429;28;20305;-63
2021/12/16 10:30:04;;;;;;;6.77;6.03;;;;;;;3.06;63.44;95675.88;5113597;28;20233;-62
2021/12/16 10:32:45;;;;;;;7.17;6.47;;;;;;;3.05;63.29;95684.63;5115590;27;20289;-64
2021/12/16 10:35:30;;;;;;;7.00;6.30;;;;;;;3.14;63.48;95680.63;5117917;28;20218;-65
2021/12/16 10:37:59;;;;;;;6.13;5.30;;;;;;;3.09;62.91;95672.28;5117461;28;20299;-64
2021/12/16 10:40:31;;;;;;;6.60;5.80;;;;;;;3.04;63.40;95674.28;5112724;28;20245;-64
2021/12/16 10:42:59;;;;;;;7.30;5.53;;;;;;;3.22;62.79;95677.59;5115585;28;20246;-64
2021/12/16 10:45:41;;;;;;;6.57;5.60;;;;;;;3.26;63.06;95679.06;5112735;28;20234;-63
2021/12/16 10:48:25;;;;;;;7.57;5.90;;;;;;;3.33;63.27;95675.19;5112624;28;20356;-64
2021/12/16 10:50:52;;;;;;;6.80;6.10;;;;;;;3.36;62.37;95669.78;5109726;28;20227;-63
2021/12/16 10:53:56;;;;;;;8.80;6.30;;;;;;;3.20;63.26;95674.22;5116199;28;20279;-63
2021/12/16 10:56:30;;;;;;;7.80;6.60;;;;;;;3.01;63.96;95661.50;5146130;27;20219;-64
2021/12/16 10:58:58;;;;;;;6.47;5.33;;;;;;;2.95;63.86;95667.88;5120279;28;20216;-65
2021/12/16 11:01:51;;;;;;;6.40;5.63;;;;;;;2.89;64.21;95683.84;5118674;28;20306;-63
2021/12/16 11:04:35;;;;;;;6.57;5.50;;;;;;;2.95;64.50;95656.66;5120652;28;20313;-65
2021/12/16 11:07:10;;;;;;;5.93;5.33;;;;;;;2.82;64.79;95659.97;5120257;28;20243;-62
2021/12/16 11:09:58;;;;;;;6.43;5.57;;;;;;;2.81;64.93;95658.31;5119071;28;20218;-63
2021/12/16 11:12:26;;;;;;;7.03;6.33;;;;;;;2.71;65.17;95667.53;5120159;27;20219;-62
2021/12/16 11:14:56;;;;;;;7.40;6.50;;;;;;;2.76;65.21;95664.69;5120652;28;20233;-62
2021/12/16 11:17:25;;;;;;;6.63;6.03;;;;;;;2.61;65.36;95667.22;5150483;27;20191;-62
2021/12/16 11:19:55;;;;;;;7.53;6.40;;;;;;;2.59;65.21;95657.84;5119173;28;20223;-65
2021/12/16 11:22:27;;;;;;;6.87;5.57;;;;;;;2.65;65.46;95657.53;5121079;28;20228;-63
2021/12/16 11:24:53;;;;;;;7.10;6.30;;;;;;;2.60;65.19;95655.19;5118631;28;20253;-63
2021/12/16 11:27:24;;;;;;;8.50;6.40;;;;;;;2.69;65.14;95656.41;5117445;28;20231;-63
2021/12/16 11:29:50;;;;;;;7.67;5.50;;;;;;;2.75;65.02;95669.03;5119191;28;20296;-64
2021/12/16 11:32:40;;;;;;;6.73;5.53;;;;;;;2.60;65.34;95655.19;5120685;28;20196;-63
2021/12/16 11:35:45;;;;;;;8.30;6.67;;;;;;;2.77;64.98;95661.16;5119971;28;20273;-64
2021/12/16 11:38:17;;;;;;;6.90;6.20;;;;;;;2.51;64.54;95649.66;5060926;28;20224;-63
2021/12/16 11:40:56;;;;;;;8.03;6.20;;;;;;;2.40;65.31;95663.25;5077691;28;20224;-64
2021/12/16 11:43:54;;;;;;;7.40;6.53;;;;;;;2.43;64.95;95665.66;5075566;28;20217;-65
2021/12/16 11:46:22;;;;;;;7.73;6.50;;;;;;;2.35;65.30;95666.13;5082529;28;20244;-64
2021/12/16 11:48:51;;;;;;;7.40;6.47;;;;;;;2.31;65.24;95666.38;5061880;28;20220;-63
2021/12/16 11:51:23;;;;;;;8.80;6.77;;;;;;;2.34;65.46;95658.41;5077203;28;20394;-64
2021/12/16 11:53:58;;;;;;;8.27;6.13;;;;;;;2.47;64.96;95659.41;5059942;28;20234;-63
2021/12/16 11:56:46;;;;;;;7.90;6.80;;;;;;;2.40;64.57;95663.25;5059493;28;20222;-64
2021/12/16 11:59:21;;;;;;;5.77;5.20;;;;;;;2.41;64.83;95645.00;5041073;28;20221;-66
2021/12/16 12:01:48;;;;;;;6.83;5.53;;;;;;;2.37;64.90;95645.25;5041418;28;20333;-63
2021/12/16 12:04:14;;;;;;;7.37;5.73;;;;;;;2.39;64.93;95641.66;5039990;28;20220;-64
2021/12/16 12:06:44;;;;;;;7.30;5.40;;;;;;;2.33;64.85;95644.59;5041972;28;20260;-63
2021/12/16 12:09:10;;;;;;;7.60;6.37;;;;;;;2.31;65.61;95640.41;5043453;28;20240;-65
2021/12/16 12:11:40;;;;;;;6.50;5.50;;;;;;;2.32;65.18;95639.47;5036786;28;20213;-63
2021/12/16 12:14:17;;;;;;;7.77;6.60;;;;;;;2.31;65.32;95643.00;5039355;28;20197;-64
2021/12/16 12:16:49;;;;;;;7.50;6.13;;;;;;;2.34;65.62;95655.81;5051057;28;20225;-63
2021/12/16 12:19:20;;;;;;;7.10;6.50;;;;;;;2.36;65.35;95651.38;5073931;28;20217;-63
2021/12/16 12:22:00;;;;;;;7.43;6.40;;;;;;;2.31;65.38;95656.00;5055787;28;20213;-64
2021/12/16 12:24:40;;;;;;;8.13;6.73;;;;;;;2.30;66.05;95651.69;5045923;28;20220;-64
2021/12/16 12:27:16;;;;;;;7.00;6.27;;;;;;;2.41;65.47;95654.56;5041635;28;20233;-65
2021/12/16 12:29:48;;;;;;;7.50;6.50;;;;;;;2.31;65.68;95654.22;5040077;28;20241;-62
2021/12/16 12:32:16;;;;;;;7.40;6.30;;;;;;;2.23;65.95;95661.59;5057355;28;20276;-64
2021/12/16 12:34:46;;;;;;;7.77;6.80;;;;;;;2.31;65.78;95651.63;5036460;28;20296;-63
2021/12/16 12:37:20;;;;;;;8.50;7.47;;;;;;;2.28;65.95;95654.41;5111239;28;20219;-67
2021/12/16 12:39:54;;;;;;;8.07;7.03;;;;;;;2.35;66.12;95654.88;5120184;28;20211;-63
2021/12/16 12:42:20;;;;;;;8.67;7.50;;;;;;;2.33;65.86;95657.56;5116952;28;20233;-62
2021/12/16 12:44:46;;;;;;;8.17;7.30;;;;;;;2.29;65.69;95655.22;5119209;28;20215;-63
2021/12/16 12:47:15;;;;;;;8.93;7.07;;;;;;;2.42;65.97;95661.41;5118563;28;20211;-65
2021/12/16 12:49:41;;;;;;;8.07;6.87;;;;;;;2.39;65.53;95657.22;5112983;28;20222;-63
2021/12/16 12:52:12;;;;;;;8.20;6.80;;;;;;;2.36;65.25;95657.41;5115981;28;20233;-64
2021/12/16 12:54:42;;;;;;;7.03;6.33;;;;;;;2.32;64.80;95655.06;5118533;28;20219;-63
2021/12/16 12:57:38;;;;;;;8.07;6.67;;;;;;;2.28;64.88;95654.41;5119431;28;20231;-65
2021/12/16 13:00:10;;;;;;;7.70;6.87;;;;;;;2.32;65.37;95642.91;5059670;28;20345;-63
2021/12/16 13:02:37;;;;;;;8.40;7.07;;;;;;;2.34;64.99;95642.84;5061662;28;20272;-67
2021/12/16 13:05:18;;;;;;;8.53;7.63;;;;;;;2.31;65.59;95649.03;5061060;28;20256;-64
2021/12/16 13:07:54;;;;;;;9.10;7.37;;;;;;;2.29;65.79;95660.41;5075534;28;20311;-63
2021/12/16 13:10:28;;;;;;;9.37;8.40;;;;;;;2.35;65.54;95655.75;5060329;28;20263;-63
2021/12/16 13:13:16;;;;;;;9.67;8.23;;;;;;;2.41;65.66;95654.56;5062972;28;20305;-63
2021/12/16 13:15:50;;;;;;;12.47;8.93;;;;;;;2.47;65.32;95658.56;5073300;28;20284;-64
2021/12/16 13:32:15;;;;;;;11.33;9.17;;;;;;;2.49;65.24;95656.72;5075215;28;20227;-64
2021/12/16 13:35:11;;;;;;;11.90;9.43;;;;;;;2.34;65.42;95648.03;5058897;28;20232;-63
2021/12/16 13:37:43;;;;;;;9.47;8.47;;;;;;;2.33;65.52;95654.97;5116178;28;20223;-64
2021/12/16 13:40:21;;;;;;;11.00;9.83;;;;;;;2.27;65.81;95654.47;5132766;28;20215;-66
2021/12/16 13:42:54;;;;;;;12.73;9.97;;;;;;;2.19;66.18;95653.16;5118045;28;20242;-65
2021/12/16 13:45:35;;;;;;;13.97;10.70;;;;;;;2.32;65.86;95655.88;5119623;28;20226;-64
2021/12/16 14:00:54;;;;;;;12.23;9.70;;;;;;;2.21;65.54;95659.09;5122585;28;20225;-64
2021/12/16 14:02:59;;;;;;;12.30;11.00;;;;;;;2.21;65.74;95666.03;5121740;28;20238;-63
2021/12/16 14:05:44;;;;;;;12.07;9.70;;;;;;;2.08;65.90;95670.22;5116694;28;20210;-66
2021/12/16 14:08:25;;;;;;;12.70;9.97;;;;;;;2.07;65.60;95674.59;5122951;28;20323;-65
2021/12/16 14:10:57;;;;;;;11.50;10.07;;;;;;;2.03;65.72;95669.63;5125051;28;20215;-62
2021/12/16 14:35:22;;;;;;;12.73;10.33;;;;;;;1.99;66.69;95668.97;5048489;28;20213;-68
2021/12/16 14:38:10;;;;;;;10.47;9.30;;;;;;;1.90;66.46;95685.88;5052597;28;20221;-64
2021/12/16 14:43:30;;;;;;;9.50;8.13;;;;;;;1.83;66.81;95686.28;5048682;28;20228;-63
2021/12/16 14:46:02;;;;;;;9.27;8.13;;;;;;;1.78;66.79;95691.72;5049781;28;20225;-64
2021/12/16 14:48:32;;;;;;;9.67;8.67;;;;;;;1.86;66.26;95689.56;5041172;28;20284;-64
2021/12/16 14:51:11;;;;;;;9.83;8.50;;;;;;;1.76;66.74;95688.38;5040423;28;20244;-65
2021/12/16 14:53:44;;;;;;;9.40;8.27;;;;;;;1.72;67.00;95692.88;5089715;28;20207;-64
2021/12/16 14:56:25;;;;;;;10.30;9.03;;;;;;;1.82;66.87;95697.56;5113956;28;20254;-65
2021/12/16 14:58:55;;;;;;;10.03;8.50;;;;;;;1.85;66.84;95684.47;5120928;28;20283;-65
2021/12/16 15:01:31;;;;;;;10.70;9.17;;;;;;;1.89;66.73;95693.72;5117568;28;20308;-64
2021/12/16 15:03:57;;;;;;;10.70;9.40;;;;;;;1.81;66.56;95688.94;5120140;28;20254;-65
2021/12/16 15:06:34;;;;;;;10.93;9.07;;;;;;;1.84;66.31;95685.38;5120158;28;20223;-63
2021/12/16 15:11:44;;;;;;;10.97;9.33;;;;;;;1.89;65.89;95683.38;5121302;28;20199;-63
2021/12/16 15:14:39;;;;;;;11.03;9.30;;;;;;;1.87;66.04;95687.78;5135172;27;20203;-65
2021/12/16 15:17:18;;;;;;;10.13;9.03;;;;;;;1.86;66.05;95686.94;5118905;28;20225;-65
2021/12/16 15:36:47;;;;;;;11.27;9.30;;;;;;;1.79;66.37;95702.91;5120964;28;20233;-64
2021/12/16 15:45:24;;;;;;;12.43;10.23;;;;;;;1.76;66.57;95704.78;5058580;28;20217;-64
2021/12/16 15:47:53;;;;;;;12.47;10.13;;;;;;;1.76;66.54;95702.19;5066965;28;20266;-66
2021/12/16 15:50:32;;;;;;;13.50;10.30;;;;;;;1.83;66.70;95714.81;5043098;28;20242;-66
2021/12/16 15:53:02;;;;;;;11.67;10.13;;;;;;;1.89;66.51;95710.13;5041625;28;20225;-65
2021/12/16 15:55:30;;;;;;;14.60;10.90;;;;;;;1.85;66.71;95733.72;5045298;28;20229;-65
2021/12/16 15:58:06;;;;;;;13.47;11.63;;;;;;;1.82;66.41;95726.09;5059287;28;20225;-68